createdAt,value
2023-03-27T00:01:53.125Z,1.45
2023-03-27T00:04:56.144Z,1.45
2023-03-27T00:08:01.736Z,1.00
2023-03-27T00:11:07.521Z,1.10
2023-03-27T00:14:11.784Z,1.52
2023-03-27T00:17:14.802Z,1.00
2023-03-27T00:20:22.339Z,1.00
2023-03-27T00:23:25.638Z,0.70
2023-03-27T00:26:30.631Z,0.47
2023-03-27T00:29:33.548Z,0.95
2023-03-27T00:32:36.518Z,0.70
2023-03-27T00:35:39.648Z,0.50
2023-03-27T00:38:43.822Z,0.70
2023-03-27T00:41:47.673Z,1.10
2023-03-27T00:44:51.834Z,0.47
2023-03-27T00:47:59.589Z,0.50
2023-03-27T00:51:03.691Z,0.93
2023-03-27T00:54:07.245Z,0.95
2023-03-27T00:57:14.240Z,1.03
2023-03-27T01:00:17.906Z,0.98
2023-03-27T01:03:25.540Z,0.77
2023-03-27T01:06:30.681Z,1.25
2023-03-27T01:09:34.344Z,1.00
2023-03-27T01:12:50.430Z,0.65
2023-03-27T01:16:07.161Z,1.38
2023-03-27T01:19:26.325Z,1.30
2023-03-27T01:22:59.642Z,1.52
2023-03-27T01:26:39.494Z,1.35
2023-03-27T01:29:52.814Z,1.40
2023-03-27T01:33:18.621Z,1.08
2023-03-27T01:36:52.279Z,1.80
2023-03-27T01:40:18.077Z,2.00
2023-03-27T01:43:40.383Z,2.38
2023-03-27T01:46:58.733Z,1.85
2023-03-27T01:50:19.774Z,1.65
2023-03-27T01:53:31.750Z,1.77
2023-03-27T01:56:39.456Z,1.77
2023-03-27T01:59:46.250Z,1.80
2023-03-27T02:02:58.459Z,1.90
2023-03-27T02:06:25.180Z,2.17
2023-03-27T02:09:42.432Z,1.90
2023-03-27T02:12:50.442Z,2.22
2023-03-27T02:15:56.690Z,1.77
2023-03-27T02:19:03.394Z,1.63
2023-03-27T02:22:07.805Z,1.52
2023-03-27T02:25:24.119Z,2.50
2023-03-27T02:29:04.429Z,2.25
2023-03-27T02:32:25.330Z,2.00
2023-03-27T02:35:37.433Z,1.87
2023-03-27T02:38:47.189Z,1.23
2023-03-27T02:42:18.769Z,2.13
2023-03-27T02:45:41.379Z,2.13
2023-03-27T02:48:49.039Z,2.20
2023-03-27T02:52:01.516Z,2.47
2023-03-27T02:55:10.849Z,1.77
2023-03-27T02:58:19.920Z,1.83
2023-03-27T03:01:32.900Z,1.95
2023-03-27T03:05:13.902Z,1.67
2023-03-27T03:08:17.050Z,1.63
2023-03-27T03:11:22.058Z,2.53
2023-03-27T03:14:31.940Z,1.80
2023-03-27T03:17:35.031Z,1.73
2023-03-27T03:20:39.857Z,2.08
2023-03-27T03:23:57.767Z,2.10
2023-03-27T03:27:03.969Z,2.03
2023-03-27T03:30:10.493Z,1.77
2023-03-27T03:33:26.112Z,2.15
2023-03-27T03:36:31.051Z,1.75
2023-03-27T03:39:34.018Z,1.93
2023-03-27T03:42:36.601Z,2.10
2023-03-27T03:45:39.902Z,2.45
2023-03-27T03:48:42.566Z,1.75
2023-03-27T03:51:46.022Z,2.85
2023-03-27T03:54:49.721Z,3.63
2023-03-27T03:57:52.142Z,2.65
2023-03-27T04:01:03.067Z,2.97
2023-03-27T04:04:25.909Z,2.00
2023-03-27T04:07:40.599Z,2.60
2023-03-27T04:10:59.897Z,2.30
2023-03-27T04:14:21.387Z,2.40
2023-03-27T04:17:26.712Z,2.17
2023-03-27T04:20:34.927Z,2.00
2023-03-27T04:23:45.278Z,2.20
2023-03-27T04:26:51.529Z,2.20
2023-03-27T04:30:02.791Z,2.45
2023-03-27T04:33:24.082Z,2.40
2023-03-27T04:36:35.630Z,2.70
2023-03-27T04:39:46.456Z,2.08
2023-03-27T04:42:50.249Z,2.37
2023-03-27T04:45:53.566Z,2.25
2023-03-27T04:48:56.541Z,1.83
2023-03-27T04:52:25.822Z,2.10
2023-03-27T04:55:30.472Z,2.83
2023-03-27T04:58:36.698Z,2.88
2023-03-27T05:02:19.551Z,2.58
2023-03-27T05:05:30.202Z,1.90
2023-03-27T05:08:38.599Z,2.17
2023-03-27T05:11:41.204Z,2.80
2023-03-27T05:14:44.843Z,2.93
2023-03-27T05:17:59.494Z,4.18
2023-03-27T05:21:02.480Z,2.50
2023-03-27T05:24:05.581Z,2.40
2023-03-27T05:27:08.421Z,1.95
2023-03-27T05:30:17.298Z,2.22
2023-03-27T05:33:21.428Z,2.58
2023-03-27T05:36:24.265Z,2.27
2023-03-27T05:39:27.272Z,1.52
2023-03-27T05:42:30.035Z,2.10
2023-03-27T05:45:34.198Z,2.60
2023-03-27T05:48:38.707Z,2.05
2023-03-27T05:51:46.971Z,2.60
2023-03-27T05:54:55.490Z,2.65
2023-03-27T05:57:59.177Z,2.40
2023-03-27T06:01:03.511Z,3.35
2023-03-27T06:04:09.458Z,5.65
2023-03-27T06:19:33.414Z,1.98
2023-03-27T06:22:39.457Z,1.27
2023-03-27T06:25:43.693Z,1.00
2023-03-27T06:28:48.644Z,1.20
2023-03-27T06:31:51.787Z,1.45
2023-03-27T06:34:59.673Z,1.57
2023-03-27T06:38:23.051Z,1.45
2023-03-27T06:41:25.868Z,1.30
2023-03-27T06:44:45.590Z,1.27
2023-03-27T06:48:12.992Z,1.23
2023-03-27T06:51:23.182Z,1.20
2023-03-27T06:54:28.347Z,1.10
2023-03-27T06:57:31.456Z,0.98
2023-03-27T07:00:39.208Z,1.90
2023-03-27T07:04:01.977Z,1.40
2023-03-27T07:07:23.656Z,1.17
2023-03-27T07:10:27.013Z,1.13
2023-03-27T07:13:31.023Z,1.17
2023-03-27T07:16:36.727Z,1.60
2023-03-27T07:19:39.814Z,1.08
2023-03-27T07:22:47.150Z,1.25
2023-03-27T07:26:09.659Z,1.55
2023-03-27T07:29:50.780Z,1.92
2023-03-27T07:32:58.957Z,2.40
2023-03-27T07:36:06.839Z,2.60
2023-03-27T07:39:29.647Z,1.77
2023-03-27T07:42:34.713Z,1.05
2023-03-27T07:45:41.611Z,1.50
2023-03-27T07:48:44.660Z,1.50
2023-03-27T07:51:53.852Z,2.50
2023-03-27T07:54:57.180Z,2.63
2023-03-27T07:58:07.118Z,3.03
2023-03-27T08:01:12.451Z,3.75
2023-03-27T08:04:15.646Z,2.28
2023-03-27T08:07:30.300Z,1.65
2023-03-27T08:10:36.766Z,1.43
2023-03-27T08:13:41.049Z,1.65
2023-03-27T08:16:43.973Z,1.70
2023-03-27T08:19:47.199Z,1.97
2023-03-27T08:22:52.871Z,1.65
2023-03-27T08:26:07.601Z,0.95
2023-03-27T08:29:17.676Z,1.20
2023-03-27T08:32:23.759Z,0.85
2023-03-27T08:35:28.873Z,1.20
2023-03-27T08:38:33.632Z,1.15
2023-03-27T08:41:56.289Z,1.50
2023-03-27T08:45:24.875Z,1.63
2023-03-27T08:48:35.013Z,1.88
2023-03-27T08:51:56.861Z,2.30
2023-03-27T08:55:24.089Z,1.50
2023-03-27T08:58:38.501Z,2.25
2023-03-27T09:02:14.911Z,2.00
2023-03-27T09:05:40.618Z,1.83
2023-03-27T09:09:11.366Z,1.63
2023-03-27T09:12:17.864Z,2.00
2023-03-27T09:15:26.324Z,1.97
2023-03-27T09:18:38.959Z,2.60
2023-03-27T09:22:01.174Z,2.20
2023-03-27T09:25:43.649Z,2.30
2023-03-27T09:29:31.384Z,2.10
2023-03-27T09:32:57.943Z,2.45
2023-03-27T09:36:01.499Z,1.98
2023-03-27T09:39:12.636Z,2.10
2023-03-27T09:42:24.175Z,2.38
2023-03-27T09:45:27.677Z,2.47
2023-03-27T09:48:53.433Z,3.97
2023-03-27T09:51:58.293Z,4.28
2023-03-27T09:55:34.409Z,5.80
2023-03-27T09:58:49.185Z,2.70
2023-03-27T10:02:09.429Z,2.67
2023-03-27T10:05:18.616Z,2.50
2023-03-27T10:08:27.386Z,2.20
2023-03-27T10:12:08.328Z,2.20
2023-03-27T10:15:37.072Z,2.72
2023-03-27T10:18:50.361Z,2.00
2023-03-27T10:22:04.403Z,2.00
2023-03-27T10:25:17.872Z,1.83
2023-03-27T10:28:36.606Z,1.85
2023-03-27T10:32:01.996Z,1.83
2023-03-27T10:35:36.763Z,1.80
2023-03-27T10:39:02.267Z,1.45
2023-03-27T10:42:17.638Z,1.50
2023-03-27T10:45:25.596Z,1.63
2023-03-27T10:48:48.375Z,1.30
2023-03-27T10:51:55.153Z,1.80
2023-03-27T10:55:19.731Z,1.40
2023-03-27T10:58:29.020Z,1.30
2023-03-27T11:01:46.772Z,1.23
2023-03-27T11:04:55.723Z,1.53
2023-03-27T11:08:13.195Z,1.38
2023-03-27T11:11:22.434Z,1.50
2023-03-27T11:14:48.457Z,1.20
2023-03-27T11:18:01.478Z,1.20
2023-03-27T11:21:37.063Z,1.30
2023-03-27T11:25:01.127Z,1.67
2023-03-27T11:28:27.273Z,1.90
2023-03-27T11:31:39.451Z,1.77
2023-03-27T11:34:54.255Z,1.23
2023-03-27T11:38:38.264Z,2.33
2023-03-27T11:41:46.689Z,1.70
2023-03-27T11:44:49.565Z,1.67
2023-03-27T11:48:14.951Z,1.70
2023-03-27T11:51:32.042Z,2.15
2023-03-27T11:54:48.520Z,3.40
2023-03-27T11:58:27.016Z,2.17
2023-03-27T12:01:57.857Z,2.40
2023-03-27T12:05:04.004Z,2.00
2023-03-27T12:08:43.518Z,2.40
2023-03-27T12:12:09.060Z,5.30
2023-03-27T12:15:28.938Z,7.07
2023-03-27T12:18:45.241Z,5.60
2023-03-27T12:22:24.254Z,4.35
2023-03-27T12:25:52.282Z,3.33
2023-03-27T12:29:28.612Z,1.98
2023-03-27T12:33:01.883Z,2.30
2023-03-27T12:36:11.514Z,2.90
2023-03-27T12:39:24.504Z,2.28
2023-03-27T12:42:49.068Z,4.07
2023-03-27T12:46:14.183Z,2.83
2023-03-27T12:49:16.908Z,2.97
2023-03-27T12:52:35.080Z,2.90
2023-03-27T12:55:47.157Z,3.55
2023-03-27T12:59:40.092Z,8.55
2023-03-27T13:03:19.964Z,8.15
2023-03-27T13:06:29.192Z,6.15
2023-03-27T13:09:53.149Z,3.63
2023-03-27T13:13:22.618Z,1.98
2023-03-27T13:16:52.591Z,2.05
2023-03-27T13:20:27.300Z,3.03
2023-03-27T13:23:53.636Z,3.67
2023-03-27T13:27:20.202Z,1.85
2023-03-27T13:30:50.196Z,0.65
2023-03-27T13:34:28.697Z,0.57
2023-03-27T13:37:38.234Z,0.40
2023-03-27T13:40:46.029Z,0.68
2023-03-27T13:43:54.159Z,0.10
2023-03-27T13:48:21.410Z,0.40
2023-03-27T13:51:53.497Z,0.85
2023-03-27T13:55:39.493Z,1.20
2023-03-27T13:59:28.081Z,3.38
2023-03-27T14:02:58.420Z,1.58
2023-03-27T14:06:34.413Z,0.77
2023-03-27T14:09:55.944Z,1.58
2023-03-27T14:13:32.515Z,1.50
2023-03-27T14:16:51.801Z,1.52
2023-03-27T14:20:21.006Z,0.80
2023-03-27T14:23:30.132Z,1.80
2023-03-27T14:26:49.625Z,1.80
2023-03-27T14:30:15.744Z,1.10
2023-03-27T14:33:23.246Z,0.95
2023-03-27T14:36:34.126Z,1.38
2023-03-27T14:39:54.161Z,1.63
2023-03-27T14:42:59.615Z,1.60
2023-03-27T14:46:06.277Z,1.30
2023-03-27T14:49:14.154Z,1.02
2023-03-27T14:52:37.991Z,1.47
2023-03-27T14:56:01.691Z,1.90
2023-03-27T14:59:26.894Z,3.25
2023-03-27T15:02:35.492Z,3.70
2023-03-27T15:06:02.002Z,6.30
2023-03-27T15:09:19.178Z,8.45
2023-03-27T15:12:47.934Z,9.50
2023-03-27T15:15:53.961Z,6.00
2023-03-27T15:19:12.351Z,7.28
2023-03-27T15:22:17.618Z,3.30
2023-03-27T15:25:31.217Z,3.40
2023-03-27T15:28:42.418Z,2.97
2023-03-27T15:31:49.235Z,0.60
2023-03-27T15:34:58.070Z,1.27
2023-03-27T15:38:02.524Z,0.85
2023-03-27T15:41:16.161Z,0.95
2023-03-27T15:44:22.208Z,1.30
2023-03-27T15:47:27.209Z,0.60
2023-03-27T15:50:30.931Z,1.00
2023-03-27T15:53:39.731Z,0.50
2023-03-27T15:56:44.080Z,1.20
2023-03-27T15:59:51.614Z,1.00
2023-03-27T16:02:56.114Z,1.02
2023-03-27T16:06:00.316Z,1.17
2023-03-27T16:09:06.416Z,1.20
2023-03-27T16:12:11.538Z,0.63
2023-03-27T16:15:56.254Z,0.47
2023-03-27T16:19:03.995Z,0.55
2023-03-27T16:22:06.723Z,0.22
2023-03-27T16:25:11.531Z,0.60
2023-03-27T16:28:14.778Z,0.50
2023-03-27T16:31:19.287Z,1.15
2023-03-27T16:34:23.789Z,2.30
2023-03-27T16:37:27.447Z,1.43
2023-03-27T16:40:31.326Z,1.80
2023-03-27T16:43:34.078Z,1.15
2023-03-27T16:46:36.815Z,1.48
2023-03-27T16:49:39.942Z,2.72
2023-03-27T16:52:42.775Z,1.17
2023-03-27T16:55:45.374Z,1.13
2023-03-27T16:58:48.211Z,1.20
2023-03-27T17:01:51.324Z,1.20
2023-03-27T17:04:54.122Z,0.80
2023-03-27T17:07:57.035Z,1.90
2023-03-27T17:11:04.026Z,0.95
2023-03-27T17:14:06.828Z,1.02
2023-03-27T17:17:09.728Z,0.75
2023-03-27T17:20:13.436Z,1.00
2023-03-27T17:23:18.982Z,1.85
2023-03-27T17:26:27.918Z,2.35
2023-03-27T17:29:31.555Z,2.37
2023-03-27T17:32:34.643Z,2.00
2023-03-27T17:35:41.888Z,2.08
2023-03-27T17:38:44.990Z,1.87
2023-03-27T17:41:47.850Z,1.33
2023-03-27T17:44:50.744Z,1.67
2023-03-27T17:47:53.638Z,2.33
2023-03-27T17:51:07.314Z,1.88
2023-03-27T17:54:12.196Z,2.25
2023-03-27T17:57:15.007Z,1.00
2023-03-27T18:00:20.088Z,1.10
2023-03-27T18:03:23.295Z,1.50
2023-03-27T18:06:26.683Z,1.08
2023-03-27T18:09:30.462Z,1.20
2023-03-27T18:12:33.552Z,1.63
2023-03-27T18:15:36.416Z,2.20
2023-03-27T18:18:39.593Z,1.60
2023-03-27T18:21:44.185Z,1.75
2023-03-27T18:24:47.106Z,2.67
2023-03-27T18:27:50.596Z,1.27
2023-03-27T18:31:09.031Z,2.30
2023-03-27T18:34:12.511Z,2.83
2023-03-27T18:37:15.944Z,1.63
2023-03-27T18:40:19.412Z,1.77
2023-03-27T18:43:23.624Z,2.28
2023-03-27T18:46:26.621Z,3.10
2023-03-27T18:49:29.651Z,2.33
2023-03-27T18:52:32.706Z,1.70
2023-03-27T18:55:36.657Z,2.83
2023-03-27T18:58:39.325Z,1.60
2023-03-27T19:01:42.519Z,2.53
2023-03-27T19:04:46.050Z,2.90
2023-03-27T19:07:48.945Z,2.35
2023-03-27T19:10:55.670Z,3.57
2023-03-27T19:14:18.803Z,3.58
2023-03-27T19:17:40.414Z,3.38
2023-03-27T19:21:00.900Z,3.15
2023-03-27T19:24:22.380Z,4.03
2023-03-27T19:27:25.829Z,3.25
2023-03-27T19:30:30.128Z,5.85
2023-03-27T19:33:33.525Z,2.30
2023-03-27T19:36:37.393Z,4.30
2023-03-27T19:39:40.458Z,2.33
2023-03-27T19:42:43.220Z,3.50
2023-03-27T19:46:08.320Z,2.30
2023-03-27T19:49:18.410Z,2.20
2023-03-27T19:52:42.839Z,2.47
2023-03-27T19:55:45.710Z,2.28
2023-03-27T19:58:48.940Z,1.45
2023-03-27T20:01:51.638Z,1.98
2023-03-27T20:04:54.734Z,2.67
2023-03-27T20:07:57.773Z,2.38
2023-03-27T20:11:03.480Z,3.53
2023-03-27T20:14:06.476Z,3.37
2023-03-27T20:17:27.003Z,3.10
2023-03-27T20:20:31.634Z,2.30
2023-03-27T20:23:37.730Z,2.50
2023-03-27T20:26:42.255Z,3.33
2023-03-27T20:29:52.111Z,2.53
2023-03-27T20:32:55.108Z,2.38
2023-03-27T20:35:58.438Z,1.10
2023-03-27T20:39:04.673Z,2.10
2023-03-27T20:42:07.811Z,1.98
2023-03-27T20:45:12.037Z,2.70
2023-03-27T20:48:16.418Z,0.90
2023-03-27T20:51:24.383Z,1.55
2023-03-27T20:54:29.476Z,1.55
2023-03-27T20:57:31.947Z,1.45
2023-03-27T21:00:35.955Z,2.20
2023-03-27T21:03:41.851Z,2.85
2023-03-27T21:06:44.513Z,2.13
2023-03-27T21:09:47.329Z,1.95
2023-03-27T21:12:51.614Z,1.95
2023-03-27T21:15:54.525Z,2.63
2023-03-27T21:18:57.199Z,2.40
2023-03-27T21:22:00.469Z,1.42
2023-03-27T21:25:03.163Z,3.75
2023-03-27T21:28:06.228Z,2.47
2023-03-27T21:31:10.573Z,2.80
2023-03-27T21:34:13.077Z,2.38
2023-03-27T21:37:16.130Z,2.47
2023-03-27T21:40:19.886Z,2.05
2023-03-27T21:43:24.516Z,2.05
2023-03-27T21:46:27.245Z,1.90
2023-03-27T21:49:30.094Z,2.55
2023-03-27T21:52:32.819Z,1.42
2023-03-27T21:55:36.065Z,1.85
2023-03-27T21:58:38.546Z,3.47
2023-03-27T22:01:41.334Z,3.45
2023-03-27T22:04:43.871Z,2.35
2023-03-27T22:07:46.562Z,1.83
2023-03-27T22:10:50.950Z,2.78
2023-03-27T22:13:53.890Z,2.65
2023-03-27T22:16:56.673Z,2.20
2023-03-27T22:19:59.482Z,1.75
2023-03-27T22:23:02.175Z,2.05
2023-03-27T22:26:05.430Z,2.95
2023-03-27T22:29:09.270Z,2.60
2023-03-27T22:32:12.464Z,1.90
2023-03-27T22:35:14.960Z,1.08
2023-03-27T22:38:18.124Z,1.53
2023-03-27T22:41:22.378Z,1.15
2023-03-27T22:44:25.145Z,1.23
2023-03-27T22:47:27.854Z,2.20
2023-03-27T22:50:30.708Z,2.88
2023-03-27T22:53:33.704Z,2.20
2023-03-27T22:56:36.484Z,2.50
2023-03-27T22:59:38.934Z,1.70
2023-03-27T23:02:41.612Z,1.58
2023-03-27T23:05:49.055Z,1.20
2023-03-27T23:08:51.938Z,2.30
2023-03-27T23:11:54.735Z,2.72
2023-03-27T23:14:57.553Z,1.98
2023-03-27T23:18:00.691Z,1.83
2023-03-27T23:21:08.142Z,1.65
2023-03-27T23:24:11.028Z,1.63
2023-03-27T23:27:14.101Z,2.33
2023-03-27T23:30:18.489Z,2.67
2023-03-27T23:33:25.427Z,2.00
2023-03-27T23:36:28.696Z,2.50
2023-03-27T23:39:31.523Z,2.00
2023-03-27T23:42:34.442Z,2.15
2023-03-27T23:45:37.340Z,2.10
2023-03-27T23:48:41.843Z,2.00
2023-03-27T23:51:44.626Z,1.65
2023-03-27T23:54:47.869Z,1.27
2023-03-27T23:57:51.278Z,1.08
